createdAt,value
2019-05-23T00:00:49.402Z,13.40
2019-05-23T00:03:24.473Z,13.40
2019-05-23T00:05:58.940Z,13.30
2019-05-23T00:08:31.389Z,13.30
2019-05-23T00:11:21.776Z,13.20
2019-05-23T00:14:00.663Z,13.20
2019-05-23T00:16:31.785Z,13.20
2019-05-23T00:19:02.568Z,13.10
2019-05-23T00:21:34.733Z,13.10
2019-05-23T00:24:05.173Z,13.10
2019-05-23T00:26:35.982Z,13.00
2019-05-23T00:29:10.270Z,13.00
2019-05-23T00:32:07.036Z,12.90
2019-05-23T00:34:39.130Z,12.90
2019-05-23T00:37:12.497Z,12.80
2019-05-23T00:39:44.287Z,12.80
2019-05-23T00:42:14.943Z,12.70
2019-05-23T00:44:45.271Z,12.70
2019-05-23T00:47:16.589Z,12.70
2019-05-23T00:49:48.055Z,12.60
2019-05-23T00:52:18.616Z,12.60
2019-05-23T00:54:50.223Z,12.60
2019-05-23T00:57:21.520Z,12.60
2019-05-23T00:59:53.132Z,12.50
2019-05-23T01:02:24.679Z,12.50
2019-05-23T01:04:55.786Z,12.50
2019-05-23T01:07:26.914Z,12.40
2019-05-23T01:09:59.353Z,12.40
2019-05-23T01:12:30.835Z,12.40
2019-05-23T01:15:03.116Z,12.40
2019-05-23T01:17:33.456Z,12.30
2019-05-23T01:20:06.204Z,12.30
2019-05-23T01:22:36.754Z,12.30
2019-05-23T01:25:08.894Z,12.30
2019-05-23T01:27:39.625Z,12.20
2019-05-23T01:30:11.841Z,12.20
2019-05-23T01:32:49.818Z,12.10
2019-05-23T01:35:22.338Z,12.10
2019-05-23T01:37:52.579Z,12.00
2019-05-23T01:40:22.845Z,12.00
2019-05-23T01:42:55.184Z,12.00
2019-05-23T01:45:26.559Z,11.90
2019-05-23T01:47:57.690Z,11.90
2019-05-23T01:50:27.997Z,11.80
2019-05-23T01:52:58.404Z,11.80
2019-05-23T01:55:29.302Z,11.80
2019-05-23T01:58:00.369Z,11.80
2019-05-23T02:00:31.458Z,11.70
2019-05-23T02:03:01.837Z,11.70
2019-05-23T02:05:32.211Z,11.60
2019-05-23T02:08:03.248Z,11.60
2019-05-23T02:10:34.199Z,11.50
2019-05-23T02:13:04.828Z,11.50
2019-05-23T02:15:36.193Z,11.50
2019-05-23T02:18:06.703Z,11.40
2019-05-23T02:20:37.840Z,11.40
2019-05-23T02:23:09.559Z,11.40
2019-05-23T02:25:41.004Z,11.40
2019-05-23T02:28:11.406Z,11.30
2019-05-23T02:30:42.153Z,11.30
2019-05-23T02:33:13.487Z,11.20
2019-05-23T02:35:43.921Z,11.20
2019-05-23T02:38:36.619Z,11.20
2019-05-23T02:41:31.568Z,11.10
2019-05-23T02:44:08.979Z,11.10
2019-05-23T02:46:51.169Z,11.10
2019-05-23T02:49:24.687Z,11.00
2019-05-23T02:51:57.313Z,11.00
2019-05-23T02:54:36.970Z,11.00
2019-05-23T02:57:06.681Z,10.90
2019-05-23T03:00:05.960Z,10.90
2019-05-23T03:02:54.784Z,10.90
2019-05-23T03:05:28.044Z,10.80
2019-05-23T03:08:01.235Z,10.80
2019-05-23T03:11:04.214Z,10.70
2019-05-23T03:13:36.416Z,10.70
2019-05-23T03:16:07.797Z,10.60
2019-05-23T03:18:44.277Z,10.60
2019-05-23T03:21:15.516Z,10.50
2019-05-23T03:23:47.864Z,10.50
2019-05-23T03:27:01.367Z,10.40
2019-05-23T03:29:34.382Z,10.40
2019-05-23T03:32:22.478Z,10.30
2019-05-23T03:34:59.433Z,10.30
2019-05-23T03:37:29.768Z,10.20
2019-05-23T03:40:00.227Z,10.20
2019-05-23T03:42:30.851Z,10.20
2019-05-23T03:45:03.226Z,10.10
2019-05-23T03:47:34.273Z,10.10
2019-05-23T03:50:06.380Z,10.10
2019-05-23T03:52:37.874Z,10.10
2019-05-23T03:55:09.013Z,10.10
2019-05-23T03:57:39.258Z,10.00
2019-05-23T04:00:15.186Z,10.00
2019-05-23T04:02:46.588Z,10.00
2019-05-23T04:05:17.356Z,10.00
2019-05-23T04:07:48.426Z,10.00
2019-05-23T04:10:20.427Z,10.00
2019-05-23T04:12:51.309Z,10.00
2019-05-23T04:15:21.837Z,10.00
2019-05-23T04:17:52.421Z,9.90
2019-05-23T04:20:25.362Z,10.00
2019-05-23T04:22:55.684Z,10.00
2019-05-23T04:25:26.430Z,10.00
2019-05-23T04:27:57.189Z,10.00
2019-05-23T04:30:27.334Z,10.00
2019-05-23T04:32:57.466Z,10.00
2019-05-23T04:35:28.029Z,10.00
2019-05-23T04:37:58.268Z,10.00
2019-05-23T04:40:28.892Z,10.00
2019-05-23T04:42:59.129Z,10.00
2019-05-23T04:45:30.057Z,10.10
2019-05-23T04:48:00.228Z,10.10
2019-05-23T04:50:30.861Z,10.10
2019-05-23T04:53:02.307Z,10.20
2019-05-23T04:55:34.169Z,10.20
2019-05-23T04:58:05.261Z,10.20
2019-05-23T05:00:35.810Z,10.20
2019-05-23T05:03:07.480Z,10.20
2019-05-23T05:05:38.773Z,10.30
2019-05-23T05:08:08.884Z,10.30
2019-05-23T05:10:39.252Z,10.30
2019-05-23T05:13:09.347Z,10.40
2019-05-23T05:15:39.545Z,10.40
2019-05-23T05:18:09.958Z,10.40
2019-05-23T05:20:40.744Z,10.50
2019-05-23T05:23:10.923Z,10.50
2019-05-23T05:25:41.106Z,10.50
2019-05-23T05:28:11.323Z,10.60
2019-05-23T05:30:42.217Z,10.70
2019-05-23T05:33:12.326Z,10.70
2019-05-23T05:35:43.405Z,10.80
2019-05-23T05:38:13.839Z,10.90
2019-05-23T05:40:44.085Z,11.00
2019-05-23T05:43:15.045Z,11.10
2019-05-23T05:45:45.850Z,11.20
2019-05-23T05:48:16.262Z,11.30
2019-05-23T05:50:46.697Z,11.50
2019-05-23T05:53:16.914Z,11.60
2019-05-23T05:55:47.027Z,11.70
2019-05-23T05:58:17.150Z,11.90
2019-05-23T06:00:57.466Z,12.10
2019-05-23T06:03:27.868Z,12.30
2019-05-23T06:06:15.520Z,12.50
2019-05-23T06:08:48.165Z,12.70
2019-05-23T06:11:19.143Z,12.90
2019-05-23T06:13:49.411Z,13.20
2019-05-23T06:16:19.739Z,13.40
2019-05-23T06:18:50.089Z,13.60
2019-05-23T06:21:25.855Z,13.70
2019-05-23T06:23:56.337Z,14.00
2019-05-23T06:26:26.442Z,14.10
2019-05-23T06:28:56.548Z,14.30
2019-05-23T06:31:27.248Z,14.50
2019-05-23T06:33:57.566Z,14.70
2019-05-23T06:36:28.170Z,14.80
2019-05-23T06:38:58.357Z,15.00
2019-05-23T06:41:28.548Z,15.10
2019-05-23T06:43:58.761Z,15.20
2019-05-23T06:46:29.040Z,15.30
2019-05-23T06:48:59.324Z,15.50
2019-05-23T06:51:29.715Z,15.60
2019-05-23T06:53:59.912Z,15.70
2019-05-23T06:56:30.132Z,15.80
2019-05-23T06:59:00.439Z,15.90
2019-05-23T07:01:30.669Z,16.10
2019-05-23T07:04:01.442Z,16.20
2019-05-23T07:06:31.649Z,16.30
2019-05-23T07:09:01.873Z,16.50
2019-05-23T07:11:32.253Z,16.60
2019-05-23T07:14:02.866Z,16.80
2019-05-23T07:16:32.998Z,16.90
2019-05-23T07:19:03.243Z,17.00
2019-05-23T07:21:33.388Z,17.20
2019-05-23T07:24:03.526Z,17.30
2019-05-23T07:26:33.691Z,17.40
2019-05-23T07:29:04.742Z,17.50
2019-05-23T07:31:35.642Z,17.70
2019-05-23T07:34:06.194Z,17.80
2019-05-23T07:36:36.661Z,17.90
2019-05-23T07:39:11.653Z,18.10
2019-05-23T07:41:41.497Z,18.20
2019-05-23T07:44:11.721Z,18.40
2019-05-23T07:46:41.922Z,18.50
2019-05-23T07:49:12.728Z,18.60
2019-05-23T07:51:42.978Z,18.70
2019-05-23T07:54:50.722Z,18.80
2019-05-23T07:57:21.799Z,19.00
2019-05-23T07:59:52.612Z,19.10
2019-05-23T08:02:33.172Z,19.20
2019-05-23T08:05:05.315Z,19.30
2019-05-23T08:07:36.635Z,19.40
2019-05-23T08:10:09.159Z,19.50
2019-05-23T08:12:39.630Z,19.50
2019-05-23T08:15:10.229Z,19.70
2019-05-23T08:17:40.464Z,19.70
2019-05-23T08:20:13.210Z,19.80
2019-05-23T08:22:43.473Z,19.90
2019-05-23T08:25:13.756Z,19.90
2019-05-23T08:27:44.449Z,20.00
2019-05-23T08:30:15.513Z,20.20
2019-05-23T08:32:45.859Z,20.30
2019-05-23T08:35:18.102Z,20.40
2019-05-23T08:37:48.322Z,20.50
2019-05-23T08:40:19.894Z,20.60
2019-05-23T08:42:50.204Z,20.60
2019-05-23T08:45:22.036Z,20.70
2019-05-23T08:47:52.382Z,20.80
2019-05-23T08:50:24.091Z,20.90
2019-05-23T08:52:54.833Z,21.10
2019-05-23T18:54:34.002Z,24.00
2019-05-23T18:57:04.361Z,24.00
2019-05-23T18:59:34.575Z,23.90
2019-05-23T19:02:05.308Z,23.90
2019-05-23T19:04:35.524Z,23.80
2019-05-23T19:07:06.226Z,23.70
2019-05-23T19:09:37.282Z,23.60
2019-05-23T19:12:09.395Z,23.60
2019-05-23T19:14:39.636Z,23.50
2019-05-23T19:17:09.791Z,23.40
2019-05-23T19:19:40.127Z,23.30
2019-05-23T19:22:10.932Z,23.20
2019-05-23T19:24:41.163Z,23.10
2019-05-23T19:27:14.373Z,23.00
2019-05-23T19:29:44.334Z,22.90
2019-05-23T19:32:14.642Z,22.70
2019-05-23T19:34:44.992Z,22.60
2019-05-23T19:37:16.541Z,22.50
2019-05-23T19:39:46.693Z,22.30
2019-05-23T19:42:16.958Z,22.20
2019-05-23T19:44:47.049Z,22.00
2019-05-23T19:47:17.528Z,21.90
2019-05-23T19:49:47.783Z,21.80
2019-05-23T19:52:18.168Z,21.70
2019-05-23T19:54:48.804Z,21.60
2019-05-23T19:57:20.292Z,21.50
2019-05-23T19:59:51.644Z,21.40
2019-05-23T20:02:30.666Z,21.30
2019-05-23T20:05:06.930Z,21.20
2019-05-23T20:07:37.478Z,21.10
2019-05-23T20:10:08.345Z,21.00
2019-05-23T20:12:38.655Z,21.00
2019-05-23T20:15:09.319Z,20.90
2019-05-23T20:17:39.523Z,20.90
2019-05-23T20:20:09.802Z,20.80
2019-05-23T20:22:39.912Z,20.70
2019-05-23T20:25:10.950Z,20.70
2019-05-23T20:27:41.100Z,20.60
2019-05-23T20:30:16.347Z,20.50
2019-05-23T20:32:46.658Z,20.50
2019-05-23T20:35:16.734Z,20.50
2019-05-23T20:37:46.927Z,20.40
2019-05-23T20:40:17.416Z,20.30
2019-05-23T20:42:47.556Z,20.20
2019-05-23T20:45:20.253Z,20.20
2019-05-23T20:47:50.342Z,20.10
2019-05-23T20:50:20.557Z,20.00
2019-05-23T20:52:50.767Z,19.90
2019-05-23T20:55:20.834Z,19.80
2019-05-23T20:57:51.029Z,19.80
2019-05-23T21:00:27.505Z,19.70
2019-05-23T21:02:57.538Z,19.60
2019-05-23T21:05:27.629Z,19.50
2019-05-23T21:07:57.719Z,19.40
2019-05-23T21:10:48.589Z,19.30
2019-05-23T21:13:19.367Z,19.20
2019-05-23T21:15:49.723Z,19.20
2019-05-23T21:18:19.825Z,19.10
2019-05-23T21:20:50.011Z,19.00
2019-05-23T21:23:20.559Z,18.90
2019-05-23T21:26:05.871Z,18.80
2019-05-23T21:28:36.699Z,18.80
2019-05-23T21:31:19.764Z,18.70
2019-05-23T21:33:49.922Z,18.60
2019-05-23T21:36:20.108Z,18.60
2019-05-23T21:38:50.259Z,18.50
2019-05-23T21:41:20.314Z,18.40
2019-05-23T21:43:52.345Z,18.40
2019-05-23T21:46:22.528Z,18.30
2019-05-23T21:48:52.697Z,18.20
2019-05-23T21:51:22.960Z,18.20
2019-05-23T21:53:53.212Z,18.10
2019-05-23T21:56:23.373Z,18.00
2019-05-23T21:58:53.549Z,18.00
2019-05-23T22:01:50.762Z,18.00
2019-05-23T22:04:29.734Z,17.90
2019-05-23T22:07:07.460Z,17.80
2019-05-23T22:09:37.631Z,17.70
2019-05-23T22:12:10.126Z,17.60
2019-05-23T22:14:40.188Z,17.60
2019-05-23T22:17:11.003Z,17.50
2019-05-23T22:19:41.096Z,17.40
2019-05-23T22:22:11.832Z,17.40
2019-05-23T22:24:41.942Z,17.30
2019-05-23T22:27:12.683Z,17.20
2019-05-23T22:29:42.826Z,17.10
2019-05-23T22:32:14.575Z,17.10
2019-05-23T22:35:06.719Z,17.00
2019-05-23T22:37:36.766Z,16.90
2019-05-23T22:40:07.539Z,16.90
2019-05-23T22:42:37.652Z,16.80
2019-05-23T22:45:12.832Z,16.80
2019-05-23T22:47:42.928Z,16.70
2019-05-23T22:50:13.445Z,16.70
2019-05-23T22:52:43.602Z,16.60
2019-05-23T22:55:13.661Z,16.50
2019-05-23T22:57:43.750Z,16.50
2019-05-23T23:00:16.111Z,16.40
2019-05-23T23:02:46.364Z,16.40
2019-05-23T23:05:16.647Z,16.30
2019-05-23T23:07:47.106Z,16.30
2019-05-23T23:10:17.456Z,16.20
2019-05-23T23:12:47.693Z,16.20
2019-05-23T23:15:18.087Z,16.10
2019-05-23T23:17:48.254Z,16.00
2019-05-23T23:20:18.410Z,15.90
2019-05-23T23:22:48.585Z,15.90
2019-05-23T23:25:18.780Z,15.80
2019-05-23T23:27:49.060Z,15.70
2019-05-23T23:30:21.862Z,15.70
2019-05-23T23:32:51.865Z,15.60
2019-05-23T23:35:22.118Z,15.50
2019-05-23T23:37:52.303Z,15.50
2019-05-23T23:40:22.494Z,15.50
2019-05-23T23:42:52.678Z,15.40
2019-05-23T23:45:40.321Z,15.40
2019-05-23T23:48:28.764Z,15.30
2019-05-23T23:51:16.772Z,15.20
2019-05-23T23:54:04.853Z,15.20
2019-05-23T23:56:52.730Z,15.20
2019-05-23T23:59:21.949Z,15.20
